sensor_id;sensor_type;location;lat;lon;timestamp;noise_LAeq;noise_LA_min;noise_LA_max;noise_LA01;noise_LA95
43787;Laerm;29409;49.306;8.500;2023-02-28T00:00:54;41.66;36.69;45.60;;
43787;Laerm;29409;49.306;8.500;2023-02-28T00:01:55;40.49;37.52;42.59;;
43787;Laerm;29409;49.306;8.500;2023-02-28T00:02:55;39.94;35.04;42.29;;
43787;Laerm;29409;49.306;8.500;2023-02-28T00:03:56;39.67;36.20;42.22;;
43787;Laerm;29409;49.306;8.500;2023-02-28T00:04:56;40.26;37.12;43.34;;
43787;Laerm;29409;49.306;8.500;2023-02-28T00:06:02;40.47;37.12;44.56;;
43787;Laerm;29409;49.306;8.500;2023-02-28T00:07:02;40.62;37.52;42.98;;
43787;Laerm;29409;49.306;8.500;2023-02-28T00:08:02;40.16;35.36;44.39;;
43787;Laerm;29409;49.306;8.500;2023-02-28T00:09:03;39.94;36.91;42.76;;
43787;Laerm;29409;49.306;8.500;2023-02-28T00:10:04;39.35;35.36;41.61;;
43787;Laerm;29409;49.306;8.500;2023-02-28T00:11:10;39.83;36.20;42.82;;
43787;Laerm;29409;49.306;8.500;2023-02-28T00:12:10;39.88;36.91;42.35;;
43787;Laerm;29409;49.306;8.500;2023-02-28T00:13:11;40.11;36.69;42.53;;
43787;Laerm;29409;49.306;8.500;2023-02-28T00:14:11;40.01;36.69;42.71;;
43787;Laerm;29409;49.306;8.500;2023-02-28T00:15:15;40.16;36.91;43.44;;
43787;Laerm;29409;49.306;8.500;2023-02-28T00:16:17;39.72;36.45;42.30;;
43787;Laerm;29409;49.306;8.500;2023-02-28T00:17:18;39.77;37.12;42.47;;
43787;Laerm;29409;49.306;8.500;2023-02-28T00:18:21;40.16;37.32;43.33;;
43787;Laerm;29409;49.306;8.500;2023-02-28T00:19:21;40.46;36.69;44.94;;
43787;Laerm;29409;49.306;8.500;2023-02-28T00:20:22;40.32;36.91;45.42;;
43787;Laerm;29409;49.306;8.500;2023-02-28T00:21:24;39.79;36.45;42.59;;
43787;Laerm;29409;49.306;8.500;2023-02-28T00:22:24;40.11;36.45;43.24;;
43787;Laerm;29409;49.306;8.500;2023-02-28T00:23:26;40.24;36.45;42.98;;
43787;Laerm;29409;49.306;8.500;2023-02-28T00:24:27;40.69;36.20;45.14;;
43787;Laerm;29409;49.306;8.500;2023-02-28T00:25:31;39.82;36.69;43.04;;
43787;Laerm;29409;49.306;8.500;2023-02-28T00:26:31;39.83;36.69;43.19;;
43787;Laerm;29409;49.306;8.500;2023-02-28T00:27:32;39.74;35.66;42.22;;
43787;Laerm;29409;49.306;8.500;2023-02-28T00:28:32;39.59;35.94;41.96;;
43787;Laerm;29409;49.306;8.500;2023-02-28T00:29:33;39.61;35.36;42.03;;
43787;Laerm;29409;49.306;8.500;2023-02-28T00:30:33;40.23;37.12;45.77;;
43787;Laerm;29409;49.306;8.500;2023-02-28T00:31:34;40.44;37.52;42.41;;
43787;Laerm;29409;49.306;8.500;2023-02-28T00:32:35;42.86;37.32;54.54;;
43787;Laerm;29409;49.306;8.500;2023-02-28T00:33:35;40.33;36.69;42.41;;
43787;Laerm;29409;49.306;8.500;2023-02-28T00:34:36;40.89;37.52;44.03;;
43787;Laerm;29409;49.306;8.500;2023-02-28T00:35:37;40.83;38.21;43.24;;
43787;Laerm;29409;49.306;8.500;2023-02-28T00:36:38;40.76;37.70;43.81;;
43787;Laerm;29409;49.306;8.500;2023-02-28T00:37:38;40.67;37.70;43.34;;
43787;Laerm;29409;49.306;8.500;2023-02-28T00:38:39;40.18;36.10;43.77;;
43787;Laerm;29409;49.306;8.500;2023-02-28T00:39:40;40.33;37.32;44.47;;
43787;Laerm;29409;49.306;8.500;2023-02-28T00:40:41;40.37;36.91;43.04;;
43787;Laerm;29409;49.306;8.500;2023-02-28T00:41:41;40.09;36.20;44.03;;
43787;Laerm;29409;49.306;8.500;2023-02-28T00:42:42;40.21;35.94;43.24;;
43787;Laerm;29409;49.306;8.500;2023-02-28T00:43:43;40.17;37.12;42.76;;
43787;Laerm;29409;49.306;8.500;2023-02-28T00:44:44;40.10;37.32;42.65;;
43787;Laerm;29409;49.306;8.500;2023-02-28T00:45:44;40.44;37.12;43.68;;
43787;Laerm;29409;49.306;8.500;2023-02-28T00:46:45;40.19;36.45;42.59;;
43787;Laerm;29409;49.306;8.500;2023-02-28T00:47:45;40.35;37.12;42.41;;
43787;Laerm;29409;49.306;8.500;2023-02-28T00:48:46;42.25;37.17;51.56;;
43787;Laerm;29409;49.306;8.500;2023-02-28T00:49:46;39.92;36.91;42.35;;
43787;Laerm;29409;49.306;8.500;2023-02-28T00:50:50;40.18;36.91;43.19;;
43787;Laerm;29409;49.306;8.500;2023-02-28T00:51:51;40.38;37.12;43.34;;
43787;Laerm;29409;49.306;8.500;2023-02-28T00:52:51;40.29;36.20;43.34;;
43787;Laerm;29409;49.306;8.500;2023-02-28T00:53:51;39.68;36.10;42.16;;
43787;Laerm;29409;49.306;8.500;2023-02-28T00:54:52;39.44;36.20;41.89;;
43787;Laerm;29409;49.306;8.500;2023-02-28T00:55:52;40.44;37.12;43.28;;
43787;Laerm;29409;49.306;8.500;2023-02-28T00:56:52;40.57;37.52;43.19;;
43787;Laerm;29409;49.306;8.500;2023-02-28T00:57:53;40.23;37.12;42.29;;
43787;Laerm;29409;49.306;8.500;2023-02-28T00:58:53;40.35;37.52;42.65;;
43787;Laerm;29409;49.306;8.500;2023-02-28T00:59:53;40.19;36.45;43.44;;
43787;Laerm;29409;49.306;8.500;2023-02-28T01:00:54;40.60;37.52;43.24;;
43787;Laerm;29409;49.306;8.500;2023-02-28T01:01:54;40.52;37.87;42.82;;
43787;Laerm;29409;49.306;8.500;2023-02-28T01:02:55;40.46;37.12;43.04;;
43787;Laerm;29409;49.306;8.500;2023-02-28T01:03:55;41.14;38.05;43.72;;
43787;Laerm;29409;49.306;8.500;2023-02-28T01:04:55;40.79;37.52;43.44;;
43787;Laerm;29409;49.306;8.500;2023-02-28T01:05:57;40.22;37.12;42.47;;
43787;Laerm;29409;49.306;8.500;2023-02-28T01:06:57;40.62;37.32;42.88;;
43787;Laerm;29409;49.306;8.500;2023-02-28T01:07:58;41.07;37.88;43.49;;
43787;Laerm;29409;49.306;8.500;2023-02-28T01:08:59;40.93;37.88;42.98;;
43787;Laerm;29409;49.306;8.500;2023-02-28T01:09:59;40.81;38.05;43.34;;
43787;Laerm;29409;49.306;8.500;2023-02-28T01:11:06;40.06;36.69;42.41;;
43787;Laerm;29409;49.306;8.500;2023-02-28T01:12:07;39.99;36.69;42.35;;
43787;Laerm;29409;49.306;8.500;2023-02-28T01:13:08;40.28;37.32;43.44;;
43787;Laerm;29409;49.306;8.500;2023-02-28T01:14:08;41.26;37.35;47.77;;
43787;Laerm;29409;49.306;8.500;2023-02-28T01:15:10;39.97;37.12;42.90;;
43787;Laerm;29409;49.306;8.500;2023-02-28T01:16:10;40.62;37.52;42.88;;
43787;Laerm;29409;49.306;8.500;2023-02-28T01:17:10;40.28;37.32;42.88;;
43787;Laerm;29409;49.306;8.500;2023-02-28T01:18:11;40.03;35.66;42.22;;
43787;Laerm;29409;49.306;8.500;2023-02-28T01:19:11;40.12;36.69;42.93;;
43787;Laerm;29409;49.306;8.500;2023-02-28T01:20:11;39.82;36.45;42.29;;
43787;Laerm;29409;49.306;8.500;2023-02-28T01:21:13;39.78;36.20;42.19;;
43787;Laerm;29409;49.306;8.500;2023-02-28T01:22:14;39.96;36.91;43.24;;
43787;Laerm;29409;49.306;8.500;2023-02-28T01:23:14;40.34;35.94;43.14;;
43787;Laerm;29409;49.306;8.500;2023-02-28T01:24:14;39.99;36.69;43.29;;
43787;Laerm;29409;49.306;8.500;2023-02-28T01:25:15;40.21;36.69;42.53;;
43787;Laerm;29409;49.306;8.500;2023-02-28T01:26:16;40.20;36.91;43.19;;
43787;Laerm;29409;49.306;8.500;2023-02-28T01:27:17;40.03;37.32;42.03;;
43787;Laerm;29409;49.306;8.500;2023-02-28T01:28:17;40.07;36.91;42.93;;
43787;Laerm;29409;49.306;8.500;2023-02-28T01:29:18;39.82;36.45;42.47;;
43787;Laerm;29409;49.306;8.500;2023-02-28T01:30:18;39.74;36.91;42.35;;
43787;Laerm;29409;49.306;8.500;2023-02-28T01:31:19;40.67;36.69;43.19;;
43787;Laerm;29409;49.306;8.500;2023-02-28T01:32:19;40.53;37.88;42.88;;
43787;Laerm;29409;49.306;8.500;2023-02-28T01:33:20;40.47;37.12;54.60;;
43787;Laerm;29409;49.306;8.500;2023-02-28T01:34:20;39.89;36.69;42.59;;
43787;Laerm;29409;49.306;8.500;2023-02-28T01:35:20;40.15;36.98;42.41;;
43787;Laerm;29409;49.306;8.500;2023-02-28T01:36:21;42.12;37.70;48.92;;
43787;Laerm;29409;49.306;8.500;2023-02-28T01:37:22;40.00;36.45;42.53;;
43787;Laerm;29409;49.306;8.500;2023-02-28T01:38:22;40.07;37.12;42.76;;
43787;Laerm;29409;49.306;8.500;2023-02-28T01:39:23;41.17;37.88;45.72;;
43787;Laerm;29409;49.306;8.500;2023-02-28T01:40:24;40.62;37.52;44.76;;
43787;Laerm;29409;49.306;8.500;2023-02-28T01:41:25;40.32;36.91;43.49;;
43787;Laerm;29409;49.306;8.500;2023-02-28T01:42:26;40.58;37.12;44.15;;
43787;Laerm;29409;49.306;8.500;2023-02-28T01:43:30;40.37;37.32;42.76;;
43787;Laerm;29409;49.306;8.500;2023-02-28T01:45:51;40.08;37.12;42.41;;
43787;Laerm;29409;49.306;8.500;2023-02-28T01:46:51;39.74;36.45;42.16;;
43787;Laerm;29409;49.306;8.500;2023-02-28T01:47:52;41.02;36.91;58.56;;
43787;Laerm;29409;49.306;8.500;2023-02-28T01:49:15;40.95;36.45;52.91;;
43787;Laerm;29409;49.306;8.500;2023-02-28T01:50:17;40.45;37.52;48.99;;
43787;Laerm;29409;49.306;8.500;2023-02-28T01:51:20;40.26;37.12;42.53;;
43787;Laerm;29409;49.306;8.500;2023-02-28T01:52:22;40.38;36.91;44.15;;
43787;Laerm;29409;49.306;8.500;2023-02-28T01:53:26;41.48;38.05;48.54;;
43787;Laerm;29409;49.306;8.500;2023-02-28T01:54:31;40.68;37.52;42.88;;
43787;Laerm;29409;49.306;8.500;2023-02-28T01:55:32;41.20;37.52;43.86;;
43787;Laerm;29409;49.306;8.500;2023-02-28T01:56:34;40.54;38.05;42.76;;
43787;Laerm;29409;49.306;8.500;2023-02-28T01:57:41;39.95;36.69;42.09;;
43787;Laerm;29409;49.306;8.500;2023-02-28T01:58:42;39.90;36.69;43.14;;
43787;Laerm;29409;49.306;8.500;2023-02-28T01:59:48;39.97;36.91;42.22;;
43787;Laerm;29409;49.306;8.500;2023-02-28T02:00:52;40.16;36.91;42.76;;
43787;Laerm;29409;49.306;8.500;2023-02-28T02:01:53;39.95;37.12;43.49;;
43787;Laerm;29409;49.306;8.500;2023-02-28T02:02:58;40.37;37.52;43.09;;
43787;Laerm;29409;49.306;8.500;2023-02-28T02:04:01;39.86;36.69;43.49;;
43787;Laerm;29409;49.306;8.500;2023-02-28T02:05:05;39.97;36.69;42.71;;
43787;Laerm;29409;49.306;8.500;2023-02-28T02:06:05;40.11;37.32;42.35;;
43787;Laerm;29409;49.306;8.500;2023-02-28T02:07:07;40.25;35.94;42.85;;
43787;Laerm;29409;49.306;8.500;2023-02-28T02:08:09;39.56;36.45;42.09;;
43787;Laerm;29409;49.306;8.500;2023-02-28T02:09:11;39.57;36.45;42.53;;
43787;Laerm;29409;49.306;8.500;2023-02-28T02:10:13;39.46;35.36;41.82;;
43787;Laerm;29409;49.306;8.500;2023-02-28T02:11:18;39.64;36.45;42.03;;
43787;Laerm;29409;49.306;8.500;2023-02-28T02:12:25;39.93;37.32;42.06;;
43787;Laerm;29409;49.306;8.500;2023-02-28T02:15:53;41.27;37.88;48.25;;
43787;Laerm;29409;49.306;8.500;2023-02-28T02:18:04;40.55;37.12;42.47;;
43787;Laerm;29409;49.306;8.500;2023-02-28T02:21:26;41.08;37.52;45.91;;
43787;Laerm;29409;49.306;8.500;2023-02-28T02:22:43;40.31;36.45;42.65;;
43787;Laerm;29409;49.306;8.500;2023-02-28T02:29:30;40.75;37.70;43.63;;
43787;Laerm;29409;49.306;8.500;2023-02-28T02:31:51;40.75;37.52;44.47;;
43787;Laerm;29409;49.306;8.500;2023-02-28T02:35:56;43.40;37.52;59.43;;
43787;Laerm;29409;49.306;8.500;2023-02-28T02:40:10;42.90;36.69;54.99;;
43787;Laerm;29409;49.306;8.500;2023-02-28T02:41:19;40.93;37.32;45.77;;
43787;Laerm;29409;49.306;8.500;2023-02-28T02:42:25;40.80;37.88;43.04;;
43787;Laerm;29409;49.306;8.500;2023-02-28T02:44:46;40.77;37.70;42.98;;
43787;Laerm;29409;49.306;8.500;2023-02-28T02:47:08;43.25;39.08;57.24;;
43787;Laerm;29409;49.306;8.500;2023-02-28T02:48:13;41.43;38.52;45.72;;
43787;Laerm;29409;49.306;8.500;2023-02-28T02:49:16;41.45;38.67;43.72;;
43787;Laerm;29409;49.306;8.500;2023-02-28T02:50:22;40.73;37.12;42.93;;
43787;Laerm;29409;49.306;8.500;2023-02-28T02:51:24;40.41;37.52;43.09;;
43787;Laerm;29409;49.306;8.500;2023-02-28T02:52:31;41.13;37.88;44.03;;
43787;Laerm;29409;49.306;8.500;2023-02-28T02:53:34;40.26;37.12;42.65;;
43787;Laerm;29409;49.306;8.500;2023-02-28T02:54:37;39.87;36.69;42.06;;
43787;Laerm;29409;49.306;8.500;2023-02-28T02:55:41;40.19;36.91;42.35;;
43787;Laerm;29409;49.306;8.500;2023-02-28T02:56:44;41.16;37.70;44.76;;
43787;Laerm;29409;49.306;8.500;2023-02-28T02:57:48;42.22;37.70;50.08;;
43787;Laerm;29409;49.306;8.500;2023-02-28T02:58:50;40.79;36.91;45.07;;
43787;Laerm;29409;49.306;8.500;2023-02-28T02:59:52;40.57;37.70;43.44;;
43787;Laerm;29409;49.306;8.500;2023-02-28T03:00:57;41.54;38.05;49.58;;
43787;Laerm;29409;49.306;8.500;2023-02-28T03:02:00;40.43;37.32;42.93;;
43787;Laerm;29409;49.306;8.500;2023-02-28T03:03:01;40.08;36.69;42.03;;
43787;Laerm;29409;49.306;8.500;2023-02-28T03:04:03;39.98;36.91;42.59;;
43787;Laerm;29409;49.306;8.500;2023-02-28T03:05:06;40.33;37.32;44.58;;
43787;Laerm;29409;49.306;8.500;2023-02-28T03:06:08;40.24;36.91;42.71;;
43787;Laerm;29409;49.306;8.500;2023-02-28T03:07:10;40.58;37.12;42.76;;
43787;Laerm;29409;49.306;8.500;2023-02-28T03:08:11;40.25;37.32;42.82;;
43787;Laerm;29409;49.306;8.500;2023-02-28T03:09:14;40.71;38.37;42.98;;
43787;Laerm;29409;49.306;8.500;2023-02-28T03:11:32;40.85;37.12;47.16;;
43787;Laerm;29409;49.306;8.500;2023-02-28T03:12:38;40.12;36.20;42.76;;
43787;Laerm;29409;49.306;8.500;2023-02-28T03:13:50;40.22;36.45;42.47;;
43787;Laerm;29409;49.306;8.500;2023-02-28T03:15:05;40.28;36.20;42.35;;
43787;Laerm;29409;49.306;8.500;2023-02-28T03:18:51;40.48;37.12;42.82;;
43787;Laerm;29409;49.306;8.500;2023-02-28T03:19:55;41.70;38.37;50.84;;
43787;Laerm;29409;49.306;8.500;2023-02-28T03:21:13;41.13;38.21;44.73;;
43787;Laerm;29409;49.306;8.500;2023-02-28T03:25:57;41.10;37.88;45.11;;
43787;Laerm;29409;49.306;8.500;2023-02-28T03:27:03;40.63;37.70;42.82;;
43787;Laerm;29409;49.306;8.500;2023-02-28T03:28:09;41.01;37.88;45.51;;
43787;Laerm;29409;49.306;8.500;2023-02-28T03:30:22;41.55;38.05;48.21;;
43787;Laerm;29409;49.306;8.500;2023-02-28T03:31:34;41.09;38.05;43.14;;
43787;Laerm;29409;49.306;8.500;2023-02-28T03:33:42;41.29;37.88;45.48;;
43787;Laerm;29409;49.306;8.500;2023-02-28T03:36:11;41.10;37.52;48.31;;
43787;Laerm;29409;49.306;8.500;2023-02-28T03:37:18;40.58;37.32;42.76;;
43787;Laerm;29409;49.306;8.500;2023-02-28T03:39:30;41.38;38.21;43.81;;
43787;Laerm;29409;49.306;8.500;2023-02-28T03:40:33;41.32;38.05;48.94;;
43787;Laerm;29409;49.306;8.500;2023-02-28T03:42:42;41.14;38.21;44.15;;
43787;Laerm;29409;49.306;8.500;2023-02-28T03:43:54;41.66;37.70;45.57;;
43787;Laerm;29409;49.306;8.500;2023-02-28T03:44:59;42.86;39.08;49.59;;
43787;Laerm;29409;49.306;8.500;2023-02-28T03:46:02;40.89;38.21;43.14;;
43787;Laerm;29409;49.306;8.500;2023-02-28T03:48:34;42.20;39.58;47.77;;
43787;Laerm;29409;49.306;8.500;2023-02-28T03:51:14;42.15;38.47;49.70;;
43787;Laerm;29409;49.306;8.500;2023-02-28T03:52:17;41.24;38.18;43.39;;
43787;Laerm;29409;49.306;8.500;2023-02-28T03:53:20;41.68;38.81;45.86;;
43787;Laerm;29409;49.306;8.500;2023-02-28T03:54:23;42.06;38.05;46.97;;
43787;Laerm;29409;49.306;8.500;2023-02-28T03:55:28;43.64;38.21;53.15;;
43787;Laerm;29409;49.306;8.500;2023-02-28T03:56:33;41.68;37.88;47.42;;
43787;Laerm;29409;49.306;8.500;2023-02-28T03:57:48;41.88;38.05;50.43;;
43787;Laerm;29409;49.306;8.500;2023-02-28T03:58:53;41.46;38.60;43.99;;
43787;Laerm;29409;49.306;8.500;2023-02-28T03:59:56;43.59;40.13;50.98;;
43787;Laerm;29409;49.306;8.500;2023-02-28T04:01:09;42.31;39.92;45.51;;
43787;Laerm;29409;49.306;8.500;2023-02-28T04:02:10;41.62;38.37;45.14;;
43787;Laerm;29409;49.306;8.500;2023-02-28T04:03:10;41.37;38.67;44.07;;
43787;Laerm;29409;49.306;8.500;2023-02-28T04:04:11;42.37;39.81;47.76;;
43787;Laerm;29409;49.306;8.500;2023-02-28T04:05:12;41.86;39.34;43.58;;
43787;Laerm;29409;49.306;8.500;2023-02-28T04:06:15;43.83;39.08;49.82;;
43787;Laerm;29409;49.306;8.500;2023-02-28T04:07:16;42.47;39.34;46.45;;
43787;Laerm;29409;49.306;8.500;2023-02-28T04:08:17;42.61;39.08;49.25;;
43787;Laerm;29409;49.306;8.500;2023-02-28T04:09:17;42.65;38.67;46.10;;
43787;Laerm;29409;49.306;8.500;2023-02-28T04:10:18;41.96;39.21;46.73;;
43787;Laerm;29409;49.306;8.500;2023-02-28T04:12:49;43.36;39.92;49.63;;
43787;Laerm;29409;49.306;8.500;2023-02-28T04:13:49;42.63;39.92;47.50;;
43787;Laerm;29409;49.306;8.500;2023-02-28T04:14:50;41.66;38.81;43.86;;
43787;Laerm;29409;49.306;8.500;2023-02-28T04:15:50;41.80;39.34;44.90;;
43787;Laerm;29409;49.306;8.500;2023-02-28T04:16:51;42.42;38.81;47.91;;
43787;Laerm;29409;49.306;8.500;2023-02-28T04:17:52;41.77;38.47;46.20;;
43787;Laerm;29409;49.306;8.500;2023-02-28T04:18:52;43.30;39.81;51.59;;
43787;Laerm;29409;49.306;8.500;2023-02-28T04:19:52;42.44;39.70;46.84;;
43787;Laerm;29409;49.306;8.500;2023-02-28T04:20:54;42.91;38.81;50.37;;
43787;Laerm;29409;49.306;8.500;2023-02-28T04:21:54;43.24;38.81;54.18;;
43787;Laerm;29409;49.306;8.500;2023-02-28T04:22:54;42.79;39.46;45.86;;
43787;Laerm;29409;49.306;8.500;2023-02-28T04:23:55;41.22;38.37;43.94;;
43787;Laerm;29409;49.306;8.500;2023-02-28T04:24:56;43.86;39.21;51.12;;
43787;Laerm;29409;49.306;8.500;2023-02-28T04:25:56;43.05;40.13;47.00;;
43787;Laerm;29409;49.306;8.500;2023-02-28T04:26:57;43.66;40.03;48.83;;
43787;Laerm;29409;49.306;8.500;2023-02-28T04:27:57;43.47;39.68;50.74;;
43787;Laerm;29409;49.306;8.500;2023-02-28T04:28:58;43.76;39.92;49.28;;
43787;Laerm;29409;49.306;8.500;2023-02-28T04:29:58;45.06;41.06;54.86;;
43787;Laerm;29409;49.306;8.500;2023-02-28T04:31:00;43.68;40.89;50.08;;
43787;Laerm;29409;49.306;8.500;2023-02-28T04:32:01;45.27;40.62;56.55;;
43787;Laerm;29409;49.306;8.500;2023-02-28T04:33:02;41.83;39.21;43.58;;
43787;Laerm;29409;49.306;8.500;2023-02-28T04:34:02;45.10;39.89;53.29;;
43787;Laerm;29409;49.306;8.500;2023-02-28T04:35:03;43.12;39.46;48.96;;
43787;Laerm;29409;49.306;8.500;2023-02-28T04:36:04;44.43;40.98;53.39;;
43787;Laerm;29409;49.306;8.500;2023-02-28T04:37:05;45.30;41.82;52.54;;
43787;Laerm;29409;49.306;8.500;2023-02-28T04:38:06;42.81;40.18;48.18;;
43787;Laerm;29409;49.306;8.500;2023-02-28T04:39:06;43.62;40.53;49.89;;
43787;Laerm;29409;49.306;8.500;2023-02-28T04:40:07;45.29;41.53;54.42;;
43787;Laerm;29409;49.306;8.500;2023-02-28T04:41:08;43.67;40.62;50.96;;
43787;Laerm;29409;49.306;8.500;2023-02-28T04:42:09;44.08;40.43;50.76;;
43787;Laerm;29409;49.306;8.500;2023-02-28T04:43:10;44.51;40.62;50.50;;
43787;Laerm;29409;49.306;8.500;2023-02-28T04:44:10;43.43;40.98;46.82;;
43787;Laerm;29409;49.306;8.500;2023-02-28T04:45:10;43.44;40.23;50.46;;
43787;Laerm;29409;49.306;8.500;2023-02-28T04:46:12;45.07;41.14;53.75;;
43787;Laerm;29409;49.306;8.500;2023-02-28T04:47:12;44.42;41.75;50.77;;
43787;Laerm;29409;49.306;8.500;2023-02-28T04:48:13;43.66;40.33;50.33;;
43787;Laerm;29409;49.306;8.500;2023-02-28T04:49:13;43.73;40.80;49.21;;
43787;Laerm;29409;49.306;8.500;2023-02-28T04:50:17;46.80;41.68;60.77;;
43787;Laerm;29409;49.306;8.500;2023-02-28T04:51:18;43.50;40.98;46.55;;
43787;Laerm;29409;49.306;8.500;2023-02-28T04:52:19;43.51;40.71;49.41;;
43787;Laerm;29409;49.306;8.500;2023-02-28T04:53:20;43.80;41.14;50.68;;
43787;Laerm;29409;49.306;8.500;2023-02-28T04:54:22;43.64;40.71;47.98;;
43787;Laerm;29409;49.306;8.500;2023-02-28T04:55:23;43.31;40.23;51.89;;
43787;Laerm;29409;49.306;8.500;2023-02-28T04:56:23;43.43;40.71;49.46;;
43787;Laerm;29409;49.306;8.500;2023-02-28T04:57:24;49.33;40.43;67.56;;
43787;Laerm;29409;49.306;8.500;2023-02-28T04:58:25;49.96;41.53;65.47;;
43787;Laerm;29409;49.306;8.500;2023-02-28T04:59:25;45.14;40.53;53.17;;
43787;Laerm;29409;49.306;8.500;2023-02-28T05:00:25;42.34;39.46;44.97;;
43787;Laerm;29409;49.306;8.500;2023-02-28T05:01:31;42.96;40.03;50.12;;
43787;Laerm;29409;49.306;8.500;2023-02-28T05:02:34;44.78;40.53;53.29;;
43787;Laerm;29409;49.306;8.500;2023-02-28T05:03:34;44.91;40.13;52.26;;
43787;Laerm;29409;49.306;8.500;2023-02-28T05:04:35;46.99;42.03;54.99;;
43787;Laerm;29409;49.306;8.500;2023-02-28T05:05:35;45.16;41.82;54.32;;
43787;Laerm;29409;49.306;8.500;2023-02-28T05:06:36;43.05;40.33;49.58;;
43787;Laerm;29409;49.306;8.500;2023-02-28T05:07:36;44.51;40.62;52.51;;
43787;Laerm;29409;49.306;8.500;2023-02-28T05:08:37;43.82;40.33;50.66;;
43787;Laerm;29409;49.306;8.500;2023-02-28T05:09:38;43.68;41.14;48.94;;
43787;Laerm;29409;49.306;8.500;2023-02-28T05:10:40;45.15;41.89;52.15;;
43787;Laerm;29409;49.306;8.500;2023-02-28T05:11:40;45.42;41.53;56.50;;
43787;Laerm;29409;49.306;8.500;2023-02-28T05:12:41;43.15;40.89;46.45;;
43787;Laerm;29409;49.306;8.500;2023-02-28T05:13:41;48.52;41.53;67.26;;
43787;Laerm;29409;49.306;8.500;2023-02-28T05:14:41;43.96;41.61;50.44;;
43787;Laerm;29409;49.306;8.500;2023-02-28T05:15:42;43.60;41.06;48.77;;
43787;Laerm;29409;49.306;8.500;2023-02-28T05:16:42;43.71;40.80;49.72;;
43787;Laerm;29409;49.306;8.500;2023-02-28T05:17:44;43.37;40.71;53.08;;
43787;Laerm;29409;49.306;8.500;2023-02-28T05:18:45;46.22;43.04;53.14;;
43787;Laerm;29409;49.306;8.500;2023-02-28T05:19:46;44.70;41.53;53.17;;
43787;Laerm;29409;49.306;8.500;2023-02-28T05:20:47;46.75;43.04;56.83;;
43787;Laerm;29409;49.306;8.500;2023-02-28T05:21:49;44.26;41.89;48.80;;
43787;Laerm;29409;49.306;8.500;2023-02-28T05:22:50;44.80;40.71;57.55;;
43787;Laerm;29409;49.306;8.500;2023-02-28T05:23:52;43.64;40.33;54.58;;
43787;Laerm;29409;49.306;8.500;2023-02-28T05:24:52;45.17;41.68;54.97;;
43787;Laerm;29409;49.306;8.500;2023-02-28T05:25:53;45.31;41.96;53.03;;
43787;Laerm;29409;49.306;8.500;2023-02-28T05:26:54;44.68;41.53;50.95;;
43787;Laerm;29409;49.306;8.500;2023-02-28T05:27:55;44.31;41.06;51.37;;
43787;Laerm;29409;49.306;8.500;2023-02-28T05:28:57;43.03;40.80;47.24;;
43787;Laerm;29409;49.306;8.500;2023-02-28T05:29:58;44.05;41.46;48.55;;
43787;Laerm;29409;49.306;8.500;2023-02-28T05:30:59;45.22;42.00;56.22;;
43787;Laerm;29409;49.306;8.500;2023-02-28T05:31:59;44.50;42.03;50.77;;
43787;Laerm;29409;49.306;8.500;2023-02-28T05:32:59;44.52;41.46;50.88;;
43787;Laerm;29409;49.306;8.500;2023-02-28T05:34:00;44.68;41.68;51.34;;
43787;Laerm;29409;49.306;8.500;2023-02-28T05:35:00;44.09;41.33;47.90;;
43787;Laerm;29409;49.306;8.500;2023-02-28T05:36:00;43.34;40.89;47.98;;
43787;Laerm;29409;49.306;8.500;2023-02-28T05:37:01;45.51;42.59;53.96;;
43787;Laerm;29409;49.306;8.500;2023-02-28T05:38:01;44.39;41.89;49.82;;
43787;Laerm;29409;49.306;8.500;2023-02-28T05:39:02;44.77;41.89;54.29;;
43787;Laerm;29409;49.306;8.500;2023-02-28T05:40:03;47.44;42.29;60.98;;
43787;Laerm;29409;49.306;8.500;2023-02-28T05:41:10;45.70;41.68;54.08;;
43787;Laerm;29409;49.306;8.500;2023-02-28T05:42:11;46.51;42.98;58.84;;
43787;Laerm;29409;49.306;8.500;2023-02-28T05:43:11;47.17;42.82;56.85;;
43787;Laerm;29409;49.306;8.500;2023-02-28T05:44:12;48.16;41.81;62.83;;
43787;Laerm;29409;49.306;8.500;2023-02-28T05:45:12;49.56;43.14;64.16;;
43787;Laerm;29409;49.306;8.500;2023-02-28T05:46:12;46.45;42.76;59.79;;
43787;Laerm;29409;49.306;8.500;2023-02-28T05:47:13;44.40;42.09;49.14;;
43787;Laerm;29409;49.306;8.500;2023-02-28T05:48:16;46.31;43.29;57.51;;
43787;Laerm;29409;49.306;8.500;2023-02-28T05:49:18;46.02;41.75;53.03;;
43787;Laerm;29409;49.306;8.500;2023-02-28T05:50:18;50.28;42.03;68.51;;
43787;Laerm;29409;49.306;8.500;2023-02-28T05:51:18;43.85;40.89;47.65;;
43787;Laerm;29409;49.306;8.500;2023-02-28T05:52:20;43.44;40.89;47.10;;
43787;Laerm;29409;49.306;8.500;2023-02-28T05:53:22;47.80;41.14;57.23;;
43787;Laerm;29409;49.306;8.500;2023-02-28T05:54:22;44.36;42.16;50.98;;
43787;Laerm;29409;49.306;8.500;2023-02-28T05:55:22;44.60;41.68;48.37;;
43787;Laerm;29409;49.306;8.500;2023-02-28T05:56:23;44.26;41.82;53.44;;
43787;Laerm;29409;49.306;8.500;2023-02-28T05:57:24;45.34;41.55;53.27;;
43787;Laerm;29409;49.306;8.500;2023-02-28T05:58:26;45.65;41.68;58.54;;
43787;Laerm;29409;49.306;8.500;2023-02-28T05:59:30;44.75;41.61;50.05;;
43787;Laerm;29409;49.306;8.500;2023-02-28T06:00:30;45.87;42.29;57.53;;
43787;Laerm;29409;49.306;8.500;2023-02-28T06:01:32;43.02;40.89;45.27;;
43787;Laerm;29409;49.306;8.500;2023-02-28T06:02:33;44.05;42.03;52.31;;
43787;Laerm;29409;49.306;8.500;2023-02-28T06:03:33;44.15;41.61;48.16;;
43787;Laerm;29409;49.306;8.500;2023-02-28T06:04:34;45.23;42.93;49.27;;
43787;Laerm;29409;49.306;8.500;2023-02-28T06:05:34;44.47;42.30;48.40;;
43787;Laerm;29409;49.306;8.500;2023-02-28T06:06:35;44.02;41.53;48.15;;
43787;Laerm;29409;49.306;8.500;2023-02-28T06:07:36;45.04;42.16;50.31;;
43787;Laerm;29409;49.306;8.500;2023-02-28T06:08:36;43.38;40.98;47.14;;
43787;Laerm;29409;49.306;8.500;2023-02-28T06:09:38;43.76;41.06;51.05;;
43787;Laerm;29409;49.306;8.500;2023-02-28T06:10:38;45.30;41.38;50.31;;
43787;Laerm;29409;49.306;8.500;2023-02-28T06:11:38;44.20;42.03;48.91;;
43787;Laerm;29409;49.306;8.500;2023-02-28T06:12:39;44.39;41.30;53.02;;
43787;Laerm;29409;49.306;8.500;2023-02-28T06:13:41;45.85;42.03;51.64;;
43787;Laerm;29409;49.306;8.500;2023-02-28T06:14:42;43.55;40.98;47.48;;
43787;Laerm;29409;49.306;8.500;2023-02-28T06:15:44;47.51;40.98;57.48;;
43787;Laerm;29409;49.306;8.500;2023-02-28T06:16:44;45.92;41.82;55.50;;
43787;Laerm;29409;49.306;8.500;2023-02-28T06:17:44;45.48;41.89;53.99;;
43787;Laerm;29409;49.306;8.500;2023-02-28T06:18:45;44.40;41.38;51.45;;
43787;Laerm;29409;49.306;8.500;2023-02-28T06:19:45;45.33;40.98;58.31;;
43787;Laerm;29409;49.306;8.500;2023-02-28T06:20:54;44.11;41.68;50.20;;
43787;Laerm;29409;49.306;8.500;2023-02-28T06:21:56;45.13;41.89;49.95;;
43787;Laerm;29409;49.306;8.500;2023-02-28T06:23:00;47.16;42.09;61.46;;
43787;Laerm;29409;49.306;8.500;2023-02-28T06:24:00;44.41;41.68;51.97;;
43787;Laerm;29409;49.306;8.500;2023-02-28T06:25:02;45.34;41.75;54.66;;
43787;Laerm;29409;49.306;8.500;2023-02-28T06:26:03;44.00;41.14;49.43;;
43787;Laerm;29409;49.306;8.500;2023-02-28T06:27:04;45.42;40.03;53.95;;
43787;Laerm;29409;49.306;8.500;2023-02-28T06:28:05;44.11;41.46;52.05;;